createdAt,value
2023-04-16T00:01:23.733Z,101704.72
2023-04-16T00:04:27.927Z,101709.16
2023-04-16T00:07:32.444Z,101704.94
2023-04-16T00:10:37.071Z,101704.81
2023-04-16T00:13:41.649Z,101706.72
2023-04-16T00:16:46.030Z,101716.28
2023-04-16T00:19:50.706Z,101711.94
2023-04-16T00:22:55.014Z,101718.91
2023-04-16T00:26:00.149Z,101722.44
2023-04-16T00:29:05.526Z,101720.72
2023-04-16T00:32:09.854Z,101717.28
2023-04-16T00:35:13.788Z,101726.13
2023-04-16T00:38:18.413Z,101721.81
2023-04-16T00:41:23.316Z,101719.28
2023-04-16T00:44:27.572Z,101720.31
2023-04-16T00:47:32.224Z,101727.50
2023-04-16T00:50:36.421Z,101732.75
2023-04-16T00:53:40.928Z,101734.53
2023-04-16T00:56:45.652Z,101737.16
2023-04-16T00:59:50.347Z,101742.38
2023-04-16T01:02:55.594Z,101735.41
2023-04-16T01:06:00.956Z,101733.66
2023-04-16T01:09:05.878Z,101733.81
2023-04-16T01:12:10.068Z,101733.81
2023-04-16T01:15:14.391Z,101736.53
2023-04-16T01:18:21.147Z,101743.50
2023-04-16T01:21:26.525Z,101748.75
2023-04-16T01:24:31.211Z,101746.19
2023-04-16T01:27:35.477Z,101752.31
2023-04-16T01:30:39.759Z,101749.81
2023-04-16T01:33:43.990Z,101757.59
2023-04-16T01:36:48.328Z,101757.78
2023-04-16T01:39:52.759Z,101752.63
2023-04-16T01:42:56.976Z,101758.69
2023-04-16T01:46:29.333Z,101762.16
2023-04-16T01:49:35.998Z,101763.94
2023-04-16T01:52:40.491Z,101763.13
2023-04-16T01:55:44.413Z,101763.22
2023-04-16T01:58:48.423Z,101767.53
2023-04-16T02:01:53.116Z,101768.34
2023-04-16T02:04:58.181Z,101770.19
2023-04-16T02:08:02.949Z,101763.41
2023-04-16T02:11:07.350Z,101769.47
2023-04-16T02:14:11.402Z,101770.38
2023-04-16T02:17:15.922Z,101770.34
2023-04-16T02:20:20.400Z,101768.66
2023-04-16T02:23:24.671Z,101765.03
2023-04-16T02:26:29.689Z,101760.72
2023-04-16T02:29:33.978Z,101769.47
2023-04-16T02:32:38.165Z,101771.06
2023-04-16T02:35:43.014Z,101761.53
2023-04-16T02:38:47.297Z,101765.88
2023-04-16T02:41:52.408Z,101767.72
2023-04-16T02:44:56.533Z,101764.28
2023-04-16T02:48:00.793Z,101774.66
2023-04-16T02:51:05.422Z,101771.09
2023-04-16T02:54:10.310Z,101765.03
2023-04-16T02:57:14.585Z,101768.50
2023-04-16T03:00:19.651Z,101776.28
2023-04-16T03:03:24.280Z,101777.97
2023-04-16T03:06:28.563Z,101782.47
2023-04-16T03:09:32.894Z,101785.19
2023-04-16T03:12:37.558Z,101786.03
2023-04-16T03:15:41.943Z,101782.47
2023-04-16T03:18:46.129Z,101787.66
2023-04-16T03:21:50.401Z,101784.13
2023-04-16T03:24:55.016Z,101787.66
2023-04-16T03:27:59.656Z,101795.50
2023-04-16T03:31:04.064Z,101793.78
2023-04-16T03:34:08.097Z,101795.56
2023-04-16T03:37:12.422Z,101794.69
2023-04-16T03:40:16.772Z,101799.06
2023-04-16T03:43:21.170Z,101804.16
2023-04-16T03:46:25.358Z,101807.75
2023-04-16T03:49:29.360Z,101811.41
2023-04-16T03:52:33.833Z,101814.91
2023-04-16T03:55:38.343Z,101819.09
2023-04-16T03:58:42.656Z,101816.50
2023-04-16T04:01:46.964Z,101814.78
2023-04-16T04:04:51.335Z,101816.56
2023-04-16T04:07:56.021Z,101821.00
2023-04-16T04:11:00.723Z,101821.00
2023-04-16T04:14:05.701Z,101825.38
2023-04-16T04:17:10.019Z,101820.97
2023-04-16T04:20:14.082Z,101824.44
2023-04-16T04:23:18.046Z,101825.38
2023-04-16T04:26:22.795Z,101822.63
2023-04-16T04:29:27.445Z,101832.13
2023-04-16T04:32:32.279Z,101823.38
2023-04-16T04:35:36.662Z,101817.34
2023-04-16T04:38:40.905Z,101823.44
2023-04-16T04:41:45.113Z,101821.66
2023-04-16T04:44:49.466Z,101826.91
2023-04-16T04:47:53.920Z,101834.75
2023-04-16T04:50:58.382Z,101834.63
2023-04-16T04:54:02.753Z,101837.31
2023-04-16T04:57:07.732Z,101833.69
2023-04-16T05:00:12.338Z,101836.31
2023-04-16T05:03:21.572Z,101836.22
2023-04-16T05:06:28.385Z,101838.88
2023-04-16T05:09:33.790Z,101840.63
2023-04-16T05:12:37.831Z,101838.72
2023-04-16T05:15:42.176Z,101845.59
2023-04-16T05:18:46.419Z,101850.75
2023-04-16T05:21:51.021Z,101849.72
2023-04-16T05:24:55.587Z,101843.47
2023-04-16T05:28:00.001Z,101842.59
2023-04-16T05:31:04.628Z,101846.00
2023-04-16T05:34:09.211Z,101848.50
2023-04-16T05:37:13.385Z,101850.25
2023-04-16T05:40:17.655Z,101862.38
2023-04-16T05:43:21.953Z,101854.44
2023-04-16T05:46:26.005Z,101865.81
2023-04-16T05:49:30.696Z,101864.78
2023-04-16T05:52:34.928Z,101863.06
2023-04-16T05:55:39.167Z,101866.44
2023-04-16T05:58:43.402Z,101865.44
2023-04-16T06:01:47.372Z,101868.88
2023-04-16T06:04:51.593Z,101868.78
2023-04-16T06:07:56.369Z,101875.78
2023-04-16T06:11:01.009Z,101881.78
2023-04-16T06:14:05.384Z,101884.34
2023-04-16T06:17:09.557Z,101894.78
2023-04-16T06:20:14.302Z,101896.41
2023-04-16T06:23:18.642Z,101897.16
2023-04-16T06:26:23.205Z,101901.47
2023-04-16T06:29:36.927Z,101901.31
2023-04-16T06:32:46.504Z,101903.09
2023-04-16T06:35:50.964Z,101896.09
2023-04-16T06:38:55.470Z,101906.44
2023-04-16T06:41:59.938Z,101902.78
2023-04-16T06:45:04.298Z,101912.38
2023-04-16T06:48:08.462Z,101908.81
2023-04-16T06:51:13.261Z,101916.63
2023-04-16T06:54:18.853Z,101914.66
2023-04-16T06:57:23.373Z,101906.72
2023-04-16T07:00:27.852Z,101914.59
2023-04-16T07:03:32.271Z,101908.41
2023-04-16T07:06:36.821Z,101910.94
2023-04-16T07:09:41.094Z,101908.19
2023-04-16T07:12:45.614Z,101913.16
2023-04-16T07:15:49.953Z,101912.09
2023-04-16T07:18:54.340Z,101910.16
2023-04-16T07:22:02.597Z,101914.16
2023-04-16T07:25:07.786Z,101915.59
2023-04-16T07:28:12.368Z,101915.31
2023-04-16T07:31:16.611Z,101919.31
2023-04-16T07:34:20.875Z,101907.66
2023-04-16T07:37:25.386Z,101912.50
2023-04-16T07:40:29.907Z,101905.31
2023-04-16T07:43:33.903Z,101905.00
2023-04-16T07:46:46.241Z,101902.16
2023-04-16T07:49:51.459Z,101898.50
2023-04-16T07:52:55.865Z,101893.06
2023-04-16T07:56:00.162Z,101894.69
2023-04-16T07:59:19.140Z,101900.84
2023-04-16T08:02:27.401Z,101905.16
2023-04-16T08:05:32.179Z,101909.38
2023-04-16T08:08:36.229Z,101906.25
2023-04-16T08:11:40.671Z,101910.56
2023-04-16T08:14:45.847Z,101918.38
2023-04-16T08:17:50.376Z,101915.06
2023-04-16T08:20:55.314Z,101919.38
2023-04-16T08:23:59.442Z,101921.97
2023-04-16T08:27:17.303Z,101927.03
2023-04-16T08:30:23.766Z,101933.78
2023-04-16T08:33:28.542Z,101931.06
2023-04-16T08:36:33.052Z,101926.69
2023-04-16T08:39:37.759Z,101931.16
2023-04-16T08:42:54.083Z,101923.88
2023-04-16T08:45:59.159Z,101932.34
2023-04-16T08:49:07.223Z,101926.19
2023-04-16T08:52:20.290Z,101926.88
2023-04-16T08:55:38.422Z,101931.09
2023-04-16T08:58:43.199Z,101916.06
2023-04-16T09:01:49.113Z,101920.28
2023-04-16T09:04:55.694Z,101920.41
2023-04-16T09:08:00.063Z,101921.31
2023-04-16T09:11:06.144Z,101928.38
2023-04-16T09:14:12.166Z,101925.19
2023-04-16T09:17:18.262Z,101935.47
2023-04-16T09:20:23.188Z,101937.19
2023-04-16T09:23:28.199Z,101943.38
2023-04-16T09:26:33.315Z,101946.97
2023-04-16T09:29:41.916Z,101963.69
2023-04-16T09:32:46.815Z,101963.78
2023-04-16T09:35:54.350Z,101953.63
2023-04-16T09:39:00.127Z,101960.56
2023-04-16T09:42:06.219Z,101967.56
2023-04-16T09:45:11.372Z,101969.28
2023-04-16T09:48:15.702Z,101971.09
2023-04-16T09:51:19.973Z,101977.00
2023-04-16T09:54:26.352Z,101988.06
2023-04-16T09:57:30.805Z,101989.69
2023-04-16T10:00:35.163Z,101989.69
2023-04-16T10:03:51.025Z,101992.13
2023-04-16T10:07:13.674Z,101992.81
2023-04-16T10:10:18.228Z,101993.91
2023-04-16T10:13:22.443Z,101992.03
2023-04-16T10:16:27.422Z,101984.03
2023-04-16T10:19:32.929Z,101994.53
2023-04-16T10:22:37.753Z,102001.50
2023-04-16T10:25:45.008Z,102001.09
2023-04-16T10:28:50.192Z,101998.41
2023-04-16T10:31:56.758Z,101997.53
2023-04-16T10:35:01.795Z,102005.28
2023-04-16T10:38:27.278Z,101998.38
2023-04-16T10:41:33.578Z,102005.91
2023-04-16T10:44:39.990Z,102000.28
2023-04-16T10:47:46.483Z,102005.28
2023-04-16T10:50:57.854Z,101994.22
2023-04-16T10:54:12.598Z,101997.91
2023-04-16T10:57:19.887Z,101992.88
2023-04-16T11:00:24.435Z,101995.34
2023-04-16T11:03:32.499Z,101993.59
2023-04-16T11:06:37.770Z,101995.28
2023-04-16T11:09:52.737Z,102002.69
2023-04-16T11:12:57.438Z,102002.28
2023-04-16T11:16:02.545Z,102005.44
2023-04-16T11:19:06.798Z,101988.69
2023-04-16T11:22:17.338Z,102002.66
2023-04-16T11:25:25.133Z,102008.44
2023-04-16T11:28:34.252Z,102019.38
2023-04-16T11:31:39.146Z,102012.03
2023-04-16T11:34:45.866Z,102018.28
2023-04-16T11:37:56.975Z,102013.66
2023-04-16T11:41:01.572Z,102007.56
2023-04-16T11:44:22.386Z,102006.50
2023-04-16T11:47:27.635Z,102019.25
2023-04-16T11:50:32.249Z,102016.03
2023-04-16T11:53:44.936Z,102021.50
2023-04-16T11:56:52.220Z,102031.13
2023-04-16T12:00:02.165Z,102037.28
2023-04-16T12:03:07.798Z,102037.06
2023-04-16T12:06:12.553Z,102036.13
2023-04-16T12:09:27.297Z,102031.72
2023-04-16T12:12:32.533Z,102031.00
2023-04-16T12:15:47.712Z,102025.97
2023-04-16T12:19:04.106Z,102028.06
2023-04-16T12:22:08.823Z,102036.31
2023-04-16T12:25:18.063Z,102039.28
2023-04-16T12:28:38.279Z,102027.13
2023-04-16T12:31:42.731Z,102025.94
2023-04-16T12:34:51.688Z,102022.03
2023-04-16T12:37:57.514Z,102020.94
2023-04-16T12:41:04.460Z,102019.72
2023-04-16T12:44:12.548Z,102018.09
2023-04-16T12:47:17.100Z,102011.63
2023-04-16T12:50:21.254Z,101995.94
2023-04-16T12:53:26.119Z,101998.94
2023-04-16T12:56:31.119Z,102005.25
2023-04-16T12:59:35.353Z,102013.00
2023-04-16T13:02:39.946Z,102018.03
2023-04-16T13:05:44.989Z,102014.19
2023-04-16T13:08:49.496Z,102021.97
2023-04-16T13:11:53.730Z,102024.00
2023-04-16T13:14:59.029Z,102026.69
2023-04-16T13:18:04.119Z,102036.44
2023-04-16T13:21:08.644Z,102039.53
2023-04-16T13:24:13.180Z,102036.34
2023-04-16T13:27:17.959Z,102034.16
2023-04-16T13:30:22.418Z,102042.63
2023-04-16T13:33:27.316Z,102035.50
2023-04-16T13:36:33.047Z,102034.03
2023-04-16T13:39:37.308Z,102046.88
2023-04-16T13:42:41.506Z,102039.91
2023-04-16T13:45:48.834Z,102037.34
2023-04-16T13:48:53.434Z,102032.34
2023-04-16T13:51:57.975Z,102040.03
2023-04-16T13:55:03.783Z,102043.47
2023-04-16T13:58:08.390Z,102047.00
2023-04-16T14:01:13.101Z,102045.31
2023-04-16T14:04:17.464Z,102043.56
2023-04-16T14:07:27.624Z,102045.19
2023-04-16T14:10:32.885Z,102046.88
2023-04-16T14:13:37.433Z,102048.72
2023-04-16T14:16:42.045Z,102053.38
2023-04-16T14:19:47.148Z,102057.03
2023-04-16T14:22:51.676Z,102054.38
2023-04-16T14:25:56.834Z,102053.69
2023-04-16T14:29:01.238Z,102045.75
2023-04-16T14:32:06.780Z,102045.81
2023-04-16T14:35:11.603Z,102048.09
2023-04-16T14:38:15.903Z,102046.47
2023-04-16T14:41:21.363Z,102054.69
2023-04-16T14:44:25.610Z,102053.19
2023-04-16T14:47:29.822Z,102050.03
2023-04-16T14:50:38.934Z,102056.31
2023-04-16T14:53:43.774Z,102053.94
2023-04-16T14:56:50.005Z,102053.34
2023-04-16T14:59:58.356Z,102066.63
2023-04-16T15:03:03.058Z,102065.81
2023-04-16T15:06:08.686Z,102087.56
2023-04-16T15:09:13.473Z,102077.25
2023-04-16T15:12:19.162Z,102078.00
2023-04-16T15:15:23.600Z,102069.44
2023-04-16T15:18:29.254Z,102074.66
2023-04-16T15:21:33.497Z,102084.34
2023-04-16T15:24:39.968Z,102079.88
2023-04-16T15:27:44.549Z,102086.78
2023-04-16T15:30:48.811Z,102094.44
2023-04-16T15:33:53.062Z,102098.78
2023-04-16T15:36:57.362Z,102097.78
2023-04-16T15:40:01.867Z,102106.47
2023-04-16T15:43:06.856Z,102111.09
2023-04-16T15:46:11.408Z,102107.63
2023-04-16T15:49:16.383Z,102110.56
2023-04-16T15:52:20.807Z,102121.50
2023-04-16T15:55:26.436Z,102127.03
2023-04-16T15:58:30.782Z,102122.84
2023-04-16T16:01:35.032Z,102127.47
2023-04-16T16:04:39.159Z,102131.94
2023-04-16T16:07:51.926Z,102138.09
2023-04-16T16:10:56.989Z,102135.69
2023-04-16T16:14:01.740Z,102141.97
2023-04-16T16:17:05.937Z,102150.91
2023-04-16T16:20:10.561Z,102149.81
2023-04-16T16:23:15.508Z,102146.16
2023-04-16T16:26:22.880Z,102141.09
2023-04-16T16:29:27.681Z,102145.63
2023-04-16T16:32:31.982Z,102146.56
2023-04-16T16:35:35.910Z,102146.56
2023-04-16T16:38:41.234Z,102149.19
2023-04-16T16:41:45.764Z,102155.22
2023-04-16T16:44:50.150Z,102155.16
2023-04-16T16:47:55.461Z,102156.22
2023-04-16T16:50:59.737Z,102164.13
2023-04-16T16:54:09.305Z,102165.16
2023-04-16T16:57:13.637Z,102159.91
2023-04-16T17:00:20.114Z,102166.91
2023-04-16T17:03:24.331Z,102169.50
2023-04-16T17:06:29.292Z,102161.81
2023-04-16T17:09:33.834Z,102156.72
2023-04-16T17:12:37.939Z,102168.06
2023-04-16T17:15:42.462Z,102168.94
2023-04-16T17:18:47.187Z,102167.34
2023-04-16T17:21:52.028Z,102169.16
2023-04-16T17:24:56.337Z,102169.50
2023-04-16T17:28:02.276Z,102167.97
2023-04-16T17:31:08.467Z,102164.34
2023-04-16T17:34:13.162Z,102166.16
2023-04-16T17:37:17.587Z,102172.41
2023-04-16T17:40:22.353Z,102174.25
2023-04-16T17:43:28.195Z,102169.84
2023-04-16T17:46:32.856Z,102174.47
2023-04-16T17:49:37.801Z,102176.41
2023-04-16T17:52:41.991Z,102185.31
2023-04-16T17:55:56.034Z,102180.97
2023-04-16T17:59:26.565Z,102184.63
2023-04-16T18:02:31.029Z,102196.06
2023-04-16T18:05:35.792Z,102199.63
2023-04-16T18:08:41.363Z,102198.94
2023-04-16T18:11:45.693Z,102210.56
2023-04-16T18:14:50.800Z,102209.84
2023-04-16T18:17:55.231Z,102209.78
2023-04-16T18:20:59.971Z,102215.09
2023-04-16T18:24:05.414Z,102221.31
2023-04-16T18:27:09.969Z,102232.88
2023-04-16T18:30:23.493Z,102239.19
2023-04-16T18:33:44.388Z,102238.28
2023-04-16T18:36:56.681Z,102249.00
2023-04-16T18:40:00.833Z,102250.88
2023-04-16T18:43:06.214Z,102257.94
2023-04-16T18:46:11.006Z,102260.63
2023-04-16T18:49:15.639Z,102260.56
2023-04-16T18:52:19.768Z,102270.25
2023-04-16T18:55:23.851Z,102266.03
2023-04-16T18:58:28.436Z,102272.25
2023-04-16T19:01:32.711Z,102270.56
2023-04-16T19:04:38.145Z,102275.03
2023-04-16T19:07:43.204Z,102278.53
2023-04-16T19:10:48.229Z,102281.28
2023-04-16T19:13:52.730Z,102286.53
2023-04-16T19:16:57.023Z,102285.53
2023-04-16T19:20:02.556Z,102288.25
2023-04-16T19:23:09.218Z,102295.16
2023-04-16T19:26:13.561Z,102291.69
2023-04-16T19:29:18.061Z,102295.97
2023-04-16T19:32:22.535Z,102293.34
2023-04-16T19:35:27.132Z,102291.63
2023-04-16T19:38:32.021Z,102291.63
2023-04-16T19:41:36.238Z,102294.28
2023-04-16T19:44:40.767Z,102300.53
2023-04-16T19:47:45.070Z,102309.28
2023-04-16T19:50:49.308Z,102307.59
2023-04-16T19:53:53.813Z,102312.81
2023-04-16T19:56:58.023Z,102310.22
2023-04-16T20:00:02.896Z,102308.50
2023-04-16T20:03:07.131Z,102306.66
2023-04-16T20:06:11.317Z,102309.34
2023-04-16T20:09:18.502Z,102307.66
2023-04-16T20:12:23.020Z,102305.88
2023-04-16T20:15:27.290Z,102305.13
2023-04-16T20:18:31.921Z,102306.09
2023-04-16T20:21:36.199Z,102313.03
2023-04-16T20:24:40.785Z,102313.06
2023-04-16T20:27:45.289Z,102316.56
2023-04-16T20:30:50.894Z,102314.75
2023-04-16T20:33:55.825Z,102313.06
2023-04-16T20:37:00.122Z,102320.13
2023-04-16T20:40:09.527Z,102327.16
2023-04-16T20:43:14.094Z,102322.84
2023-04-16T20:46:18.438Z,102330.66
2023-04-16T20:49:22.879Z,102331.59
2023-04-16T20:52:27.209Z,102327.13
2023-04-16T20:55:31.518Z,102331.59
2023-04-16T20:58:35.550Z,102336.94
2023-04-16T21:01:40.212Z,102333.44
2023-04-16T21:04:45.073Z,102336.09
2023-04-16T21:07:49.486Z,102340.47
2023-04-16T21:10:53.641Z,102339.63
2023-04-16T21:13:57.852Z,102349.22
2023-04-16T21:17:02.372Z,102344.00
2023-04-16T21:20:10.616Z,102351.03
2023-04-16T21:23:15.003Z,102349.22
2023-04-16T21:26:19.263Z,102351.78
2023-04-16T21:29:23.595Z,102350.06
2023-04-16T21:32:28.232Z,102348.38
2023-04-16T21:35:33.416Z,102352.72
2023-04-16T21:38:38.011Z,102351.88
2023-04-16T21:41:42.326Z,102351.06
2023-04-16T21:44:46.598Z,102356.28
2023-04-16T21:47:50.920Z,102353.72
2023-04-16T21:51:00.135Z,102347.66
2023-04-16T21:54:05.075Z,102345.00
2023-04-16T21:57:09.277Z,102353.63
2023-04-16T22:00:14.404Z,102345.72
2023-04-16T22:03:19.546Z,102346.69
2023-04-16T22:06:24.028Z,102346.69
2023-04-16T22:09:28.430Z,102350.09
2023-04-16T22:12:32.832Z,102343.06
2023-04-16T22:15:37.102Z,102345.84
2023-04-16T22:18:41.887Z,102344.16
2023-04-16T22:21:47.468Z,102348.50
2023-04-16T22:24:52.221Z,102349.34
2023-04-16T22:27:56.778Z,102342.41
2023-04-16T22:31:02.053Z,102351.06
2023-04-16T22:34:06.381Z,102340.63
2023-04-16T22:37:10.793Z,102345.97
2023-04-16T22:40:15.946Z,102348.63
2023-04-16T22:43:20.458Z,102355.63
2023-04-16T22:46:26.192Z,102362.72
2023-04-16T22:49:33.158Z,102360.13
2023-04-16T22:52:37.877Z,102364.56
2023-04-16T22:55:42.166Z,102361.13
2023-04-16T22:58:51.542Z,102369.03
2023-04-16T23:01:55.899Z,102358.66
2023-04-16T23:05:00.919Z,102362.19
2023-04-16T23:08:06.050Z,102371.00
2023-04-16T23:11:10.514Z,102369.31
2023-04-16T23:14:16.820Z,102371.94
2023-04-16T23:17:21.525Z,102363.28
2023-04-16T23:20:25.911Z,102372.03
2023-04-16T23:23:30.329Z,102367.72
2023-04-16T23:26:34.707Z,102365.16
2023-04-16T23:29:38.846Z,102373.88
2023-04-16T23:32:42.938Z,102367.00
2023-04-16T23:35:47.922Z,102367.91
2023-04-16T23:38:52.563Z,102374.88
2023-04-16T23:41:57.538Z,102374.00
2023-04-16T23:45:02.582Z,102370.56
2023-04-16T23:48:06.957Z,102378.41
2023-04-16T23:51:11.431Z,102379.38
2023-04-16T23:54:15.947Z,102383.72
2023-04-16T23:57:20.673Z,102375.88
